Logo AVAMET
Benvolgut visitant, si us plau, ingressa Recuperar contrasenya

Portell de Morella

Dades diàries. Acumulats / Últims 30 dies disponibles

Data Temperatura (°C) Humitat rel. (%) Pressió rel. (hPa) Vent (km/h) Precipi-
tació (mm)
Mínima Mitjana Màxima Mínima Mitjana Màxima Mínima Mitjana Màxima Predom. Mitjana Ràfega
màxima
Mínima Mitjana Màxima Mínima Mitjana Màxima
Dades mensuals acumulades fins l'últim dia disponible
05/2018 2,4 6,9 12,0 11,8 11,3 17,4 21,2   7,8 69,2 12,8
Dades anuals acumulades fins l'últim dia disponible
2018 -5,3 3,7 12,4 7,6 0,1 12,2 23,0   11,4 78,9 181,4
Últims 30 dies disponibles
23-05-2018 12,0     15,1     19,8 ESE 4,0 29,0 0,3
22-05-2018 8,8     14,0     19,3 WSW 3,5 27,4 1,3
21-05-2018 8,9     12,9     20,1 W 2,6 32,2 5,1
20-05-2018 10,4     12,7     16,7 ESE 2,7 30,6 1,8
19-05-2018 7,7     13,1     18,4 ESE 3,2 24,1 0,3
18-05-2018 7,8     12,4     16,5 W 3,2 20,9 0,0
17-05-2018 6,8     12,8     19,2 ESE 3,7 25,7 0,0
16-05-2018 5,3     12,2     19,0 W 2,4 20,9 0,0
15-05-2018 4,7     10,2     17,6 W 11,3 38,6 0,0
14-05-2018 4,9     9,0     14,2 W 15,0 56,3 0,0
13-05-2018 2,4     7,3     13,1 W 21,4 69,2 0,0
12-05-2018 5,6     14,5     20,6 N 9,0 46,7 0,0
11-05-2018 7,7     14,8     21,2 ESE 4,7 27,4 0,0
10-05-2018 8,8     12,0     17,8 W 14,6 46,7 0,0
09-05-2018 8,3     14,6     20,6 W 6,9 35,4 0,0
08-05-2018 9,0     14,1     19,9 W 4,5 27,4 1,0
07-05-2018 7,8     12,4     16,5 W 2,7 17,7 2,5
06-05-2018 8,1     12,2     17,1 E 1,8 16,1 0,5
05-05-2018 7,3     11,9     18,4 W 4,0 22,5 0,0
04-05-2018 4,1     9,1     16,3 W 11,9 40,2 0,0
03-05-2018 5,4     9,4     12,3 W 23,3 66,0 0,0
02-05-2018 4,3     9,4     14,2 W 14,6 56,3 0,0
01-05-2018 2,6     5,9     11,3 W 9,5 35,4 0,0
30-04-2018 3,2     6,7     10,4 W 6,1 32,2 2,5
29-04-2018 6,7     9,3     12,4 W 10,3 53,1 0,0
28-04-2018 7,3     13,2     17,9 ESE 8,7 45,1 0,3
27-04-2018 12,4     16,1     22,3 W 5,6 38,6 4,8
26-04-2018 7,5     14,8     23,0 W 3,2 16,1 0,0
25-04-2018 8,7     15,4     22,9 W 4,3 33,8 0,0
24-04-2018 8,9     14,9     20,8 ESE 5,3 33,8 0,0
Últims 13 mesos disponibles
04/2018 0,3 5,9 12,4 10,4 5,6 15,4 23,0 7,7 57,9 74,3
03/2018 -2,5 3,3 9,3 6,9 3,5 11,3 21,2 14,5 78,9 17,6
02/2018 -5,3 0,0 7,4 3,2 0,1 6,8 17,6 14,4 78,9 28,1
01/2018 -2,8 3,0 10,4 6,6 4,1 10,9 18,3 11,8 74,0 48,6
12/2017 -3,5 1,3 9,2 5,5 1,3 10,4 16,1 12,1 91,7 4,2
11/2017 -3,3 3,3 11,4 8,0 5,1 13,7 20,9 11,4 90,1 0,0
10/2017 2,9 9,4 14,3 14,9 13,3 21,4 26,8 6,1 53,1 6,1
09/2017 4,9 11,0 16,1 16,2 11,8 22,4 27,0 6,3 66,0 2,8
08/2017 9,2 15,5 20,9 21,1 19,0 27,1 33,5 6,5 69,2 51,4
07/2017 8,7 15,5 20,2 21,3 18,3 27,4 34,3 7,7 54,7 42,0
06/2017 8,8 14,8 20,5 20,5 15,3 26,6 32,6 6,4 74,0 25,0
05/2017 3,3 10,0 15,0 15,4 15,1 20,9 27,1 7,0 56,3 8,5
04/2017 -0,6 4,7 11,4 10,4 7,8 16,6 24,4 6,6 61,2 24,6
Tots els anys disponibles
2017 -6,9 7,7 20,9 12,8 -1,4 18,5 34,3 8,3 91,7 286,4
2016 -7,8 7,7 22,4 12,3 3,2 17,6 33,6 7,4 111,0 478,7
Temperatura (°C)
Humitat relativa (%)
Velocitat del vent (km/h) i direcció (°)
Pressió (hPa) i precipitació (mm)
Nota sobre les dades: s'avisa a l'usuari de la provisionalitat i no oficialitat d'aquestes dades
Logo AVAMET blanc
Llicència de Creative CommonsLa web d'AVAMET i els seus continguts estan subjectes a una llicència de
Reconeixement - No Comercial - Compartir igual
Properes estacions:  Quart de Poblet-Centre (Ajuntament soci),  Santa Pola (Ajuntament soci), Castelló de la Plana - IES Sos Baynat (soci), Enguera - Navalón (soci-ADENE), Borriol - Vall del Morico (soci), Montanejos (Ajuntament soci)  - - - - -   Últimes estacions: Villena - ciutat (soci), Vilallonga - Pla de la Llacuna (soci), Vilallonga - Nord (soci), Palma de Gandia-Marxuquera (soci) - - - - - - - - - - - - Properes estacions:  Quart de Poblet-Centre (Ajuntament soci),  Santa Pola (Ajuntament soci), Castelló de la Plana - IES Sos Baynat (soci), Enguera - Navalón (soci-ADENE), Borriol - Vall del Morico (soci), Montanejos (Ajuntament soci)  - - - - -   Últimes estacions: Villena - ciutat (soci), Vilallonga - Pla de la Llacuna (soci), Vilallonga - Nord (soci), Palma de Gandia-Marxuquera (soci)